createdAt,value
2018-11-04T00:00:54.226Z,84.77
2018-11-04T00:05:57.354Z,84.98
2018-11-04T00:11:00.553Z,84.63
2018-11-04T00:16:03.779Z,84.35
2018-11-04T00:21:06.939Z,83.88
2018-11-04T00:26:10.080Z,82.88
2018-11-04T00:31:13.204Z,82.09
2018-11-04T00:36:16.376Z,81.42
2018-11-04T00:41:19.538Z,81.24
2018-11-04T00:46:22.652Z,81.88
2018-11-04T00:51:25.767Z,81.44
2018-11-04T00:56:28.890Z,81.42
2018-11-04T01:01:32.102Z,81.49
2018-11-04T01:06:35.202Z,80.70
2018-11-04T01:11:38.413Z,81.11
2018-11-04T01:16:41.696Z,81.30
2018-11-04T01:21:44.910Z,81.13
2018-11-04T01:26:48.027Z,80.72
2018-11-04T01:31:51.139Z,80.27
2018-11-04T01:36:54.295Z,80.71
2018-11-04T01:41:57.409Z,79.89
2018-11-04T01:47:00.535Z,79.73
2018-11-04T01:52:03.687Z,80.38
2018-11-04T01:57:06.834Z,80.65
2018-11-04T02:02:09.970Z,80.87
2018-11-04T02:07:13.079Z,80.72
2018-11-04T02:12:16.203Z,80.06
2018-11-04T02:17:19.311Z,80.55
2018-11-04T02:22:22.406Z,80.65
2018-11-04T02:27:25.590Z,80.22
2018-11-04T02:32:28.710Z,80.53
2018-11-04T02:37:31.813Z,80.60
2018-11-04T02:42:34.916Z,80.74
2018-11-04T02:47:38.310Z,81.09
2018-11-04T02:52:41.397Z,80.88
2018-11-04T02:57:44.485Z,81.05
2018-11-04T03:02:47.610Z,81.22
2018-11-04T03:07:50.707Z,81.22
2018-11-04T03:12:53.786Z,81.75
2018-11-04T03:17:56.887Z,81.44
2018-11-04T03:23:00.280Z,81.65
2018-11-04T03:28:03.453Z,81.36
2018-11-04T03:33:07.430Z,81.61
2018-11-04T03:38:10.640Z,81.83
2018-11-04T03:43:13.821Z,81.22
2018-11-04T03:48:16.969Z,81.20
2018-11-04T03:53:20.513Z,80.94
2018-11-04T03:58:23.628Z,81.29
2018-11-04T04:03:26.730Z,80.46
2018-11-04T04:08:30.156Z,80.48
2018-11-04T04:13:33.721Z,80.73
2018-11-04T04:18:36.871Z,81.00
2018-11-04T04:23:41.558Z,81.01
2018-11-04T04:28:44.656Z,81.30
2018-11-04T04:33:47.727Z,81.49
2018-11-04T04:38:50.834Z,81.86
2018-11-04T04:43:53.925Z,81.99
2018-11-04T04:48:57.094Z,81.72
2018-11-04T04:54:00.298Z,81.40
2018-11-04T04:59:04.047Z,81.15
2018-11-04T05:04:07.153Z,81.65
2018-11-04T05:09:10.258Z,81.61
2018-11-04T05:14:13.378Z,81.86
2018-11-04T05:19:16.481Z,81.96
2018-11-04T05:24:19.619Z,81.96
2018-11-04T05:29:22.742Z,81.67
2018-11-04T05:34:25.866Z,81.99
2018-11-04T05:39:29.038Z,82.01
2018-11-04T05:44:32.151Z,81.67
2018-11-04T05:49:35.344Z,82.08
2018-11-04T05:54:38.666Z,81.75
2018-11-04T05:59:42.191Z,81.84
2018-11-04T06:04:45.417Z,81.85
2018-11-04T06:09:48.569Z,81.88
2018-11-04T06:14:51.727Z,82.33
2018-11-04T06:19:54.872Z,81.97
2018-11-04T06:24:58.114Z,82.50
2018-11-04T06:30:01.255Z,82.47
2018-11-04T06:35:05.306Z,82.55
2018-11-04T06:40:11.397Z,82.53
2018-11-04T06:45:14.654Z,82.41
2018-11-04T06:50:18.157Z,81.99
2018-11-04T06:55:21.418Z,82.73
2018-11-04T07:00:24.821Z,82.45
2018-11-04T07:05:28.180Z,82.82
2018-11-04T07:10:31.478Z,82.14
2018-11-04T07:15:35.010Z,82.02
2018-11-04T07:20:38.234Z,82.05
2018-11-04T07:25:41.461Z,81.53
2018-11-04T07:30:44.649Z,81.64
2018-11-04T07:35:47.813Z,81.74
2018-11-04T07:40:50.959Z,81.18
2018-11-04T07:45:54.102Z,81.46
2018-11-04T07:50:57.242Z,81.46
2018-11-04T07:56:00.413Z,81.33
2018-11-04T08:01:03.690Z,81.27
2018-11-04T08:06:06.893Z,81.30
2018-11-04T08:11:10.911Z,81.14
2018-11-04T08:16:14.069Z,81.45
2018-11-04T08:21:17.506Z,81.41
2018-11-04T08:26:20.597Z,81.58
2018-11-04T08:31:23.717Z,82.07
2018-11-04T08:36:26.864Z,81.55
2018-11-04T08:41:29.996Z,80.97
2018-11-04T08:46:33.225Z,81.34
2018-11-04T08:51:36.464Z,81.84
2018-11-04T08:56:39.671Z,82.41
2018-11-04T09:01:42.793Z,82.13
2018-11-04T09:06:45.945Z,82.57
2018-11-04T09:11:49.153Z,82.21
2018-11-04T09:16:52.323Z,82.46
2018-11-04T09:21:55.671Z,82.24
2018-11-04T09:26:58.639Z,80.73
2018-11-04T09:32:01.930Z,80.64
2018-11-04T09:37:05.314Z,80.48
2018-11-04T09:42:08.471Z,80.24
2018-11-04T09:47:11.702Z,80.04
2018-11-04T09:52:14.814Z,79.33
2018-11-04T09:57:17.950Z,78.38
2018-11-04T10:02:21.069Z,78.32
2018-11-04T10:07:24.206Z,77.98
2018-11-04T10:12:27.356Z,77.45
2018-11-04T10:17:30.474Z,78.11
2018-11-04T10:22:33.699Z,77.26
2018-11-04T10:27:37.283Z,76.90
2018-11-04T10:32:40.540Z,76.07
2018-11-04T10:37:43.712Z,76.55
2018-11-04T10:42:46.904Z,75.91
2018-11-04T10:47:50.045Z,75.66
2018-11-04T10:52:53.208Z,75.15
2018-11-04T10:57:59.129Z,75.43
2018-11-04T11:03:02.489Z,75.94
2018-11-04T11:08:05.808Z,74.78
2018-11-04T11:13:08.958Z,74.57
2018-11-04T11:18:12.082Z,75.28
2018-11-04T11:23:15.319Z,74.52
2018-11-04T11:28:18.391Z,74.65
2018-11-04T11:33:21.546Z,75.51
2018-11-04T11:38:24.737Z,75.81
2018-11-04T11:43:27.893Z,74.75
2018-11-04T11:48:31.390Z,74.98
2018-11-04T11:53:34.730Z,74.43
2018-11-04T11:58:38.128Z,73.86
2018-11-04T12:03:41.889Z,74.20
2018-11-04T12:08:46.595Z,74.21
2018-11-04T12:13:49.831Z,74.04
2018-11-04T12:18:53.010Z,74.34
2018-11-04T12:23:56.147Z,75.00
2018-11-04T12:28:59.278Z,75.41
2018-11-04T12:34:02.414Z,74.45
2018-11-04T12:39:08.608Z,74.07
2018-11-04T12:44:11.920Z,73.75
2018-11-04T12:49:15.191Z,73.83
2018-11-04T12:54:18.410Z,74.06
2018-11-04T12:59:21.750Z,73.83
2018-11-04T13:04:25.038Z,73.34
2018-11-04T13:09:28.229Z,73.02
2018-11-04T13:14:31.465Z,73.67
2018-11-04T13:19:34.700Z,74.25
2018-11-04T13:24:37.910Z,74.51
2018-11-04T13:29:41.265Z,74.27
2018-11-04T13:34:44.465Z,74.63
2018-11-04T13:39:47.750Z,74.17
2018-11-04T13:44:52.161Z,74.21
2018-11-04T13:49:55.292Z,75.00
2018-11-04T13:54:58.433Z,74.90
2018-11-04T14:00:01.647Z,75.28
2018-11-04T14:05:05.889Z,75.76
2018-11-04T14:10:10.514Z,75.92
2018-11-04T14:15:14.152Z,75.85
2018-11-04T14:20:17.293Z,76.12
2018-11-04T14:25:20.477Z,76.54
2018-11-04T14:30:23.618Z,76.42
2018-11-04T14:35:26.831Z,77.00
2018-11-04T14:40:30.753Z,77.42
2018-11-04T14:45:35.588Z,77.33
2018-11-04T14:50:39.710Z,77.26
2018-11-04T14:55:43.674Z,77.30
2018-11-04T15:00:47.391Z,76.76
2018-11-04T15:05:50.532Z,77.55
2018-11-04T15:10:53.714Z,78.58
2018-11-04T15:15:56.899Z,79.66
2018-11-04T15:21:00.090Z,79.92
2018-11-04T15:26:03.321Z,80.56
2018-11-04T15:31:06.516Z,80.83
2018-11-04T15:36:09.691Z,81.39
2018-11-04T15:41:12.805Z,81.86
2018-11-04T15:46:16.006Z,81.46
2018-11-04T15:51:21.051Z,82.32
2018-11-04T15:56:26.610Z,83.17
2018-11-04T16:01:31.615Z,82.29
2018-11-04T16:06:36.278Z,82.95
2018-11-04T16:11:40.969Z,84.40
2018-11-04T16:16:45.740Z,84.10
2018-11-04T16:21:50.077Z,84.61
2018-11-04T16:26:53.436Z,84.42
2018-11-04T16:31:57.202Z,84.94
2018-11-04T16:37:00.327Z,84.73
2018-11-04T16:42:03.490Z,83.71
2018-11-04T16:47:06.634Z,84.51
2018-11-04T16:52:09.806Z,84.21
2018-11-04T16:57:12.982Z,83.18
2018-11-04T17:02:16.196Z,83.03
2018-11-04T17:07:19.370Z,82.42
2018-11-04T17:12:22.542Z,82.35
2018-11-04T17:17:25.674Z,82.09
2018-11-04T17:22:28.961Z,82.11
2018-11-04T17:27:33.210Z,81.75
2018-11-04T17:32:37.273Z,81.36
2018-11-04T17:37:41.303Z,81.01
2018-11-04T17:42:44.697Z,80.36
2018-11-04T17:47:47.858Z,80.51
2018-11-04T17:52:51.110Z,80.28
2018-11-04T17:57:54.275Z,79.47
2018-11-04T18:02:57.660Z,79.08
2018-11-04T18:08:01.917Z,79.14
2018-11-04T18:13:05.274Z,78.79
2018-11-04T18:18:08.482Z,78.85
2018-11-04T18:23:11.618Z,78.52
2018-11-04T18:28:14.777Z,78.38
2018-11-04T18:33:17.918Z,78.22
2018-11-04T18:38:21.081Z,78.06
2018-11-04T18:43:24.380Z,77.69
2018-11-04T18:48:27.688Z,77.54
2018-11-04T18:53:31.083Z,77.56
2018-11-04T18:58:34.328Z,76.64
2018-11-04T19:03:37.666Z,76.56
2018-11-04T19:08:42.100Z,76.03
2018-11-04T19:13:47.761Z,75.83
2018-11-04T19:18:52.498Z,75.87
2018-11-04T19:23:57.507Z,75.62
2018-11-04T19:29:02.377Z,75.19
2018-11-04T19:34:07.377Z,75.24
2018-11-04T19:39:12.776Z,75.73
2018-11-04T19:44:16.816Z,75.55
2018-11-04T19:49:21.451Z,75.15
2018-11-04T19:54:26.801Z,75.69
2018-11-04T19:59:31.717Z,75.00
2018-11-04T20:04:35.248Z,75.20
2018-11-04T20:09:38.430Z,75.43
2018-11-04T20:14:41.658Z,75.57
2018-11-04T20:19:50.529Z,75.10
2018-11-04T20:25:00.131Z,75.60
2018-11-04T20:30:04.764Z,75.83
2018-11-04T20:35:08.529Z,75.66
2018-11-04T20:40:17.850Z,76.44
2018-11-04T20:45:21.776Z,76.51
2018-11-04T20:50:31.658Z,77.09
2018-11-04T20:55:41.116Z,77.21
2018-11-04T21:00:44.806Z,77.15
2018-11-04T21:05:48.023Z,77.54
2018-11-04T21:10:51.966Z,77.47
2018-11-04T21:15:55.435Z,77.66
2018-11-04T21:20:58.501Z,77.04
2018-11-04T21:26:01.654Z,77.61
2018-11-04T21:31:04.902Z,77.32
2018-11-04T21:36:08.077Z,77.01
2018-11-04T21:41:11.286Z,76.82
2018-11-04T21:46:14.773Z,76.72
2018-11-04T21:51:18.135Z,76.98
2018-11-04T21:56:21.441Z,77.64
2018-11-04T22:01:24.509Z,77.58
2018-11-04T22:06:27.677Z,77.03
2018-11-04T22:11:30.817Z,77.14
2018-11-04T22:16:34.082Z,77.12
2018-11-04T22:21:37.570Z,76.74
2018-11-04T22:26:41.069Z,76.60
2018-11-04T22:31:44.419Z,76.74
2018-11-04T22:36:47.687Z,77.03
2018-11-04T22:41:50.846Z,76.93
2018-11-04T22:46:54.035Z,76.84
2018-11-04T22:51:57.211Z,77.38
2018-11-04T22:57:00.441Z,77.84
2018-11-04T23:02:04.797Z,77.15
2018-11-04T23:07:08.041Z,77.01
2018-11-04T23:12:11.329Z,76.82
2018-11-04T23:17:14.555Z,77.28
2018-11-04T23:22:17.876Z,77.38
2018-11-04T23:27:21.107Z,77.15
2018-11-04T23:32:24.288Z,77.50
2018-11-04T23:37:27.497Z,77.77
2018-11-04T23:42:30.684Z,77.57
2018-11-04T23:47:33.835Z,77.18
2018-11-04T23:52:37.035Z,77.82
2018-11-04T23:57:40.173Z,77.53
